createdAt,value
2018-12-06T00:00:55.586Z,581.4
2018-12-06T00:01:57.796Z,581.5
2018-12-06T00:03:00.220Z,580.9
2018-12-06T00:04:02.371Z,580.5
2018-12-06T00:05:04.812Z,580.3
2018-12-06T00:06:07.233Z,580.6
2018-12-06T00:07:09.660Z,580.7
2018-12-06T00:08:11.532Z,581.5
2018-12-06T00:09:13.961Z,581.8
2018-12-06T00:10:16.089Z,582
2018-12-06T00:11:18.539Z,581.7
2018-12-06T00:12:20.472Z,580.7
2018-12-06T00:13:22.620Z,581.4
2018-12-06T00:14:24.779Z,581.6
2018-12-06T00:15:27.212Z,582
2018-12-06T00:16:29.639Z,583.1
2018-12-06T00:17:32.056Z,583.8
2018-12-06T00:18:33.937Z,583.4
2018-12-06T00:19:36.074Z,583.1
2018-12-06T00:20:38.575Z,582.8
2018-12-06T00:21:41.008Z,583.6
2018-12-06T00:22:43.450Z,584.6
2018-12-06T00:23:45.613Z,584.5
2018-12-06T00:24:48.041Z,584.9
2018-12-06T00:25:50.480Z,584.4
2018-12-06T00:26:52.641Z,584.5
2018-12-06T00:27:55.080Z,584.5
2018-12-06T00:28:57.509Z,582.6
2018-12-06T00:29:59.926Z,580.7
2018-12-06T00:31:02.365Z,580.4
2018-12-06T00:32:04.779Z,579.7
2018-12-06T00:33:07.216Z,578.8
2018-12-06T00:34:09.636Z,579
2018-12-06T00:35:11.789Z,578.2
2018-12-06T00:36:14.227Z,578.2
2018-12-06T00:37:16.382Z,578.8
2018-12-06T00:38:18.859Z,578.8
2018-12-06T00:39:20.988Z,578.9
2018-12-06T00:40:23.416Z,578.8
2018-12-06T00:41:25.575Z,578.8
2018-12-06T00:42:28.008Z,578.7
2018-12-06T00:43:30.201Z,579
2018-12-06T00:44:32.068Z,578.8
2018-12-06T00:45:34.226Z,578.9
2018-12-06T00:46:36.666Z,579.4
2018-12-06T00:47:39.090Z,579.5
2018-12-06T00:48:41.560Z,578.9
2018-12-06T00:49:43.717Z,579.4
2018-12-06T00:50:45.581Z,578.9
2018-12-06T00:51:47.473Z,578.9
2018-12-06T00:52:49.922Z,579.1
2018-12-06T00:53:51.823Z,578.7
2018-12-06T00:54:54.261Z,578.2
2018-12-06T00:55:56.410Z,578
2018-12-06T00:56:58.835Z,577.6
2018-12-06T00:58:00.993Z,576.5
2018-12-06T00:59:03.165Z,576.1
2018-12-06T01:00:05.618Z,575.7
2018-12-06T01:01:08.037Z,574.9
2018-12-06T01:02:10.466Z,574.9
2018-12-06T01:03:12.891Z,575
2018-12-06T01:04:15.318Z,574.6
2018-12-06T01:05:17.491Z,574.9
2018-12-06T01:06:19.649Z,574.3
2018-12-06T01:07:22.070Z,575
2018-12-06T01:08:24.234Z,574.1
2018-12-06T01:09:26.377Z,574.2
2018-12-06T01:10:28.262Z,573.9
2018-12-06T01:11:30.419Z,574.6
2018-12-06T01:12:32.578Z,574.5
2018-12-06T01:13:35.000Z,574.9
2018-12-06T01:14:37.423Z,575.2
2018-12-06T01:15:39.872Z,575.1
2018-12-06T01:16:42.312Z,574.8
2018-12-06T01:17:44.488Z,574.8
2018-12-06T01:18:46.379Z,575.3
2018-12-06T01:19:48.239Z,575
2018-12-06T01:20:50.388Z,575.6
2018-12-06T01:21:52.890Z,575.9
2018-12-06T01:22:54.798Z,575.8
2018-12-06T01:23:57.220Z,576.2
2018-12-06T01:24:59.657Z,576.4
2018-12-06T01:26:01.809Z,576.5
2018-12-06T01:27:03.950Z,576.3
2018-12-06T01:28:06.369Z,576.4
2018-12-06T01:29:08.545Z,576.5
2018-12-06T01:30:10.966Z,576.4
2018-12-06T01:31:13.136Z,576.2
2018-12-06T01:32:15.591Z,575.9
2018-12-06T01:33:17.757Z,576.5
2018-12-06T01:34:19.902Z,576.3
2018-12-06T01:35:21.791Z,576.1
2018-12-06T01:36:24.224Z,576.1
2018-12-06T01:37:26.374Z,576.9
2018-12-06T01:38:28.554Z,577.2
2018-12-06T01:39:30.441Z,577
2018-12-06T01:40:32.597Z,577.1
2018-12-06T01:41:35.018Z,576.6
2018-12-06T01:42:37.516Z,576.6
2018-12-06T01:43:39.668Z,576.1
2018-12-06T01:44:42.097Z,576.1
2018-12-06T01:45:44.530Z,576
2018-12-06T01:46:46.686Z,575.8
2018-12-06T01:47:48.852Z,574.8
2018-12-06T01:48:51.022Z,575.7
2018-12-06T01:49:53.446Z,575.5
2018-12-06T01:50:55.603Z,575.7
2018-12-06T01:51:57.771Z,575.6
2018-12-06T01:53:00.213Z,575
2018-12-06T01:54:02.645Z,574.8
2018-12-06T01:55:04.570Z,573.4
2018-12-06T01:56:07.079Z,573
2018-12-06T01:57:09.241Z,573
2018-12-06T01:58:11.391Z,572.9
2018-12-06T01:59:13.823Z,572.7
2018-12-06T02:00:16.271Z,572.8
2018-12-06T02:01:18.141Z,572.6
2018-12-06T02:02:20.269Z,573.2
2018-12-06T02:03:22.429Z,572.8
2018-12-06T02:04:24.860Z,573.1
2018-12-06T02:05:27.292Z,572.7
2018-12-06T02:06:29.715Z,572.9
2018-12-06T02:07:31.902Z,573
2018-12-06T02:08:34.059Z,573.7
2018-12-06T02:09:36.218Z,573.5
2018-12-06T02:10:38.649Z,573.3
2018-12-06T02:11:41.150Z,573.2
2018-12-06T02:12:43.575Z,573.4
2018-12-06T02:13:46.004Z,573.8
2018-12-06T02:14:48.436Z,574.3
2018-12-06T02:15:50.605Z,574.1
2018-12-06T02:16:52.775Z,573.6
2018-12-06T02:17:54.926Z,573.2
2018-12-06T02:18:57.357Z,573.7
2018-12-06T02:19:59.535Z,573.8
2018-12-06T02:21:01.417Z,573.5
2018-12-06T02:22:03.632Z,573.4
2018-12-06T02:23:05.496Z,573.7
2018-12-06T02:24:07.639Z,573.6
2018-12-06T02:25:09.791Z,573.5
2018-12-06T02:26:11.925Z,573.9
2018-12-06T02:27:14.359Z,573.9
2018-12-06T02:28:16.516Z,573.9
2018-12-06T02:29:18.420Z,574.2
2018-12-06T02:30:20.850Z,574.3
2018-12-06T02:31:23.283Z,574.2
2018-12-06T02:32:25.168Z,574.3
2018-12-06T02:33:27.609Z,574.5
2018-12-06T02:34:29.485Z,574.5
2018-12-06T02:35:31.907Z,574.9
2018-12-06T02:36:34.454Z,574.9
2018-12-06T02:37:36.882Z,575.1
2018-12-06T02:38:39.061Z,575.2
2018-12-06T02:39:41.486Z,575
2018-12-06T02:40:43.906Z,575.5
2018-12-06T02:41:46.068Z,575.6
2018-12-06T02:42:47.939Z,575.4
2018-12-06T02:43:49.836Z,575.3
2018-12-06T02:44:52.270Z,575.2
2018-12-06T02:45:54.702Z,575.4
2018-12-06T02:46:57.127Z,575.2
2018-12-06T02:47:59.010Z,575.4
2018-12-06T02:49:01.423Z,575.9
2018-12-06T02:50:03.578Z,576.1
2018-12-06T02:51:06.008Z,576.2
2018-12-06T02:52:07.898Z,576.6
2018-12-06T02:53:10.342Z,576.8
2018-12-06T02:54:12.763Z,577.7
2018-12-06T02:55:15.202Z,577.8
2018-12-06T02:56:17.372Z,578.3
2018-12-06T02:57:19.797Z,578.3
2018-12-06T02:58:22.211Z,578.9
2018-12-06T02:59:24.637Z,579
2018-12-06T03:00:27.067Z,579.2
2018-12-06T03:01:29.507Z,579.1
2018-12-06T03:02:31.936Z,579.2
2018-12-06T03:03:34.095Z,579.1
2018-12-06T03:04:36.526Z,579.6
2018-12-06T03:05:39.038Z,579.9
2018-12-06T03:06:41.181Z,580.1
2018-12-06T03:07:43.613Z,580.2
2018-12-06T03:08:46.047Z,579.9
2018-12-06T03:09:48.488Z,580.1
2018-12-06T03:10:50.663Z,580.8
2018-12-06T03:11:53.920Z,580.6
2018-12-06T03:12:56.336Z,581
2018-12-06T03:13:58.768Z,581
2018-12-06T03:15:00.909Z,580.6
2018-12-06T03:16:03.056Z,580.9
2018-12-06T03:17:05.488Z,581.1
2018-12-06T03:18:07.919Z,581.1
2018-12-06T03:19:10.346Z,580.9
2018-12-06T03:20:11.945Z,581.4
2018-12-06T03:21:14.120Z,580.8
2018-12-06T03:22:16.549Z,581.3
2018-12-06T03:23:18.700Z,581.1
2018-12-06T03:24:21.193Z,580.8
2018-12-06T03:25:23.623Z,580.3
2018-12-06T03:26:25.779Z,580.9
2018-12-06T03:27:27.906Z,580.7
2018-12-06T03:28:30.331Z,580.3
2018-12-06T03:29:31.936Z,580.6
2018-12-06T03:30:34.085Z,580.7
2018-12-06T03:31:36.239Z,581
2018-12-06T03:32:38.407Z,580.5
2018-12-06T03:33:40.843Z,580.8
2018-12-06T03:34:43.378Z,580.9
2018-12-06T03:35:45.809Z,580.9
2018-12-06T03:36:49.696Z,581.4
2018-12-06T03:37:52.337Z,581.2
2018-12-06T03:38:54.776Z,581.1
2018-12-06T03:39:57.216Z,581.2
2018-12-06T03:40:59.386Z,580.7
2018-12-06T03:42:01.851Z,580.5
2018-12-06T03:43:04.282Z,580.1
2018-12-06T03:44:06.707Z,580.3
2018-12-06T03:45:09.141Z,580.5
2018-12-06T03:46:11.307Z,580.2
2018-12-06T03:47:13.497Z,580.7
2018-12-06T03:48:15.366Z,580.6
2018-12-06T03:49:17.796Z,581
2018-12-06T03:50:19.690Z,581.4
2018-12-06T03:51:21.838Z,581.2
2018-12-06T03:52:23.760Z,581.2
2018-12-06T03:53:25.885Z,581.2
2018-12-06T03:54:28.333Z,581.3
2018-12-06T03:55:30.768Z,581.7
2018-12-06T03:56:33.198Z,581.7
2018-12-06T03:57:35.628Z,581.3
2018-12-06T03:58:38.059Z,581.6
2018-12-06T03:59:40.184Z,581.3
2018-12-06T04:00:42.082Z,581.8
2018-12-06T04:01:44.223Z,582.2
2018-12-06T04:02:46.652Z,582
2018-12-06T04:03:49.077Z,582.4
2018-12-06T04:04:51.238Z,582.5
2018-12-06T04:05:53.688Z,582.8
2018-12-06T04:06:56.120Z,582.9
2018-12-06T04:07:58.552Z,583
2018-12-06T04:09:00.710Z,583.3
2018-12-06T04:10:03.373Z,582.9
2018-12-06T04:11:05.540Z,583.2
2018-12-06T04:12:07.974Z,582.8
2018-12-06T04:13:10.394Z,582.9
2018-12-06T04:14:12.828Z,582.9
2018-12-06T04:15:14.409Z,582.9
2018-12-06T04:16:16.836Z,583
2018-12-06T04:17:19.270Z,582.9
2018-12-06T04:18:21.248Z,583.2
2018-12-06T04:19:23.418Z,583.1
2018-12-06T04:20:27.447Z,582.9
2018-12-06T04:21:29.870Z,583
2018-12-06T04:22:32.007Z,583.3
2018-12-06T04:23:34.157Z,583.4
2018-12-06T04:24:36.307Z,583.3
2018-12-06T04:25:38.455Z,583.4
2018-12-06T04:26:40.587Z,583.6
2018-12-06T04:27:42.478Z,583.9
2018-12-06T04:28:44.639Z,583.9
2018-12-06T04:29:46.792Z,584.3
2018-12-06T04:30:49.220Z,584.3
2018-12-06T04:31:51.713Z,584.7
2018-12-06T04:32:54.140Z,584.9
2018-12-06T04:33:56.565Z,585.3
2018-12-06T04:34:58.999Z,585.2
2018-12-06T04:36:01.448Z,585.8
2018-12-06T04:37:04.019Z,585.9
2018-12-06T04:38:06.469Z,586.1
2018-12-06T04:39:08.902Z,586.1
2018-12-06T04:40:11.396Z,586.2
2018-12-06T04:41:13.838Z,586.3
2018-12-06T04:42:15.706Z,586.5
2018-12-06T04:43:17.606Z,586.3
2018-12-06T04:44:19.185Z,586.1
2018-12-06T04:45:21.607Z,585.8
2018-12-06T04:46:24.045Z,586
2018-12-06T04:47:26.817Z,585.8
2018-12-06T04:48:29.050Z,585.9
2018-12-06T04:49:31.528Z,586.1
2018-12-06T04:50:34.001Z,586
2018-12-06T04:51:36.210Z,585.8
2018-12-06T04:52:38.399Z,586
2018-12-06T04:53:40.297Z,585.8
2018-12-06T04:54:42.471Z,586.1
2018-12-06T04:55:45.020Z,586.1
2018-12-06T04:56:47.449Z,586.1
2018-12-06T04:57:49.876Z,586.3
2018-12-06T04:58:51.770Z,586
2018-12-06T04:59:54.197Z,586
2018-12-06T05:00:56.619Z,585.8
2018-12-06T05:01:58.490Z,585.6
2018-12-06T05:03:00.650Z,585.5
2018-12-06T05:04:03.080Z,585.5
2018-12-06T05:05:05.218Z,584.9
2018-12-06T05:06:07.117Z,585.2
2018-12-06T05:07:09.536Z,584.6
2018-12-06T05:08:11.686Z,584.7
2018-12-06T05:09:13.816Z,584.6
2018-12-06T05:10:15.687Z,584.7
2018-12-06T05:11:17.849Z,584.9
2018-12-06T05:12:20.282Z,585.1
2018-12-06T05:13:21.888Z,584.3
2018-12-06T05:14:24.316Z,584
2018-12-06T05:15:26.471Z,583.7
2018-12-06T05:16:28.897Z,583.6
2018-12-06T05:17:31.054Z,583.2
2018-12-06T05:18:33.210Z,582.8
2018-12-06T05:19:35.637Z,582.9
2018-12-06T05:20:38.066Z,583.1
2018-12-06T05:21:40.500Z,583.1
2018-12-06T05:22:42.923Z,582.7
2018-12-06T05:23:45.351Z,582.2
2018-12-06T05:24:47.795Z,582.3
2018-12-06T05:25:50.226Z,581.3
2018-12-06T05:26:52.645Z,581
2018-12-06T05:27:55.065Z,581.1
2018-12-06T05:28:57.488Z,580.6
2018-12-06T05:29:59.381Z,580.7
2018-12-06T05:31:01.808Z,580.8
2018-12-06T05:32:03.681Z,580.4
2018-12-06T05:33:05.835Z,581.1
2018-12-06T05:34:08.011Z,581
2018-12-06T05:35:10.168Z,581.1
2018-12-06T05:36:12.337Z,581.7
2018-12-06T05:37:14.210Z,581.8
2018-12-06T05:38:16.110Z,581.9
2018-12-06T05:39:18.255Z,581.6
2018-12-06T05:40:20.407Z,580.7
2018-12-06T05:41:22.569Z,580.5
2018-12-06T05:42:25.018Z,580.8
2018-12-06T05:43:27.440Z,580.8
2018-12-06T05:44:29.593Z,581
2018-12-06T05:45:32.023Z,581.1
2018-12-06T05:46:34.450Z,581.7
2018-12-06T05:47:36.873Z,582.1
2018-12-06T05:48:39.371Z,581.8
2018-12-06T05:49:41.520Z,582.5
2018-12-06T05:50:43.949Z,582.4
2018-12-06T05:51:46.106Z,581.7
2018-12-06T05:52:48.566Z,581.2
2018-12-06T05:53:50.999Z,580.5
2018-12-06T05:54:53.424Z,580.4
2018-12-06T05:55:55.302Z,581.1
2018-12-06T05:56:57.437Z,581.5
2018-12-06T05:57:59.603Z,581.1
2018-12-06T05:59:01.489Z,581.1
2018-12-06T06:00:03.357Z,581.4
2018-12-06T06:01:05.486Z,581.3
2018-12-06T06:02:07.622Z,581.6
2018-12-06T06:03:10.048Z,581.5
2018-12-06T06:04:12.529Z,581.3
2018-12-06T06:05:14.665Z,581
2018-12-06T06:06:17.088Z,580.9
2018-12-06T06:07:19.513Z,580.7
2018-12-06T06:08:21.941Z,580.3
2018-12-06T06:09:26.159Z,580.3
2018-12-06T06:10:28.297Z,580.7
2018-12-06T06:11:30.495Z,579.5
2018-12-06T06:12:32.632Z,579.2
2018-12-06T06:13:34.828Z,580
2018-12-06T06:14:37.931Z,579.3
2018-12-06T06:15:40.381Z,579.4
2018-12-06T06:16:42.840Z,579.5
2018-12-06T06:17:45.281Z,579.5
2018-12-06T06:18:47.695Z,578.9
2018-12-06T06:19:49.841Z,579.1
2018-12-06T06:20:52.266Z,579
2018-12-06T06:21:54.708Z,578.7
2018-12-06T06:22:57.139Z,578.9
2018-12-06T06:23:59.566Z,579
2018-12-06T06:25:01.737Z,578.7
2018-12-06T06:26:04.159Z,578.7
2018-12-06T06:27:06.317Z,578.7
2018-12-06T06:28:08.540Z,578.2
2018-12-06T06:29:10.712Z,578
2018-12-06T06:30:13.143Z,577.8
2018-12-06T06:31:15.301Z,577.5
2018-12-06T06:32:17.748Z,577.9
2018-12-06T06:33:19.914Z,578.2
2018-12-06T06:34:22.339Z,577.7
2018-12-06T06:35:24.497Z,577.9
2018-12-06T06:36:26.918Z,577.6
2018-12-06T06:37:29.079Z,577.7
2018-12-06T06:38:30.937Z,577.9
2018-12-06T06:39:32.823Z,577.6
2018-12-06T06:40:35.243Z,577.3
2018-12-06T06:41:37.394Z,577.1
2018-12-06T06:42:39.563Z,576.7
2018-12-06T06:43:42.000Z,576.6
2018-12-06T06:44:43.868Z,576.4
2018-12-06T06:45:46.007Z,576
2018-12-06T06:46:48.435Z,576
2018-12-06T06:47:50.863Z,575.9
2018-12-06T06:48:53.018Z,575.7
2018-12-06T06:49:54.935Z,575.9
2018-12-06T06:50:57.376Z,575.7
2018-12-06T06:51:59.267Z,575.6
2018-12-06T06:53:01.418Z,575.5
2018-12-06T06:54:03.854Z,575.6
2018-12-06T06:55:06.297Z,575.5
2018-12-06T06:56:08.447Z,575.3
2018-12-06T06:57:10.874Z,575.4
2018-12-06T06:58:13.043Z,575.8
2018-12-06T06:59:15.194Z,575.5
2018-12-06T07:00:16.803Z,575.7
2018-12-06T07:01:19.223Z,575.5
2018-12-06T07:02:21.387Z,575.7
2018-12-06T07:03:23.535Z,576.1
2018-12-06T07:04:26.020Z,576.1
2018-12-06T07:05:28.476Z,575.6
2018-12-06T07:06:30.646Z,576.2
2018-12-06T07:07:33.076Z,576
2018-12-06T07:08:35.523Z,576.4
2018-12-06T07:09:37.952Z,576.4
2018-12-06T07:10:40.372Z,576.2
2018-12-06T07:11:42.531Z,576
2018-12-06T07:12:44.977Z,576.1
2018-12-06T07:13:47.410Z,575.8
2018-12-06T07:14:49.575Z,576
2018-12-06T07:15:52.013Z,575.9
2018-12-06T07:16:54.172Z,575.7
2018-12-06T07:17:56.608Z,575.4
2018-12-06T07:18:58.506Z,575.8
2018-12-06T07:20:00.936Z,575.9
2018-12-06T07:21:03.369Z,575.6
2018-12-06T07:22:05.542Z,575.7
2018-12-06T07:23:07.426Z,575.9
2018-12-06T07:24:09.857Z,576.3
2018-12-06T07:25:11.993Z,576.4
2018-12-06T07:26:14.153Z,576.5
2018-12-06T07:27:16.372Z,576.5
2018-12-06T07:28:18.535Z,576.2
2018-12-06T07:29:20.147Z,576.2
2018-12-06T07:30:22.589Z,575.9
2018-12-06T07:31:24.756Z,576.4
2018-12-06T07:32:27.183Z,576.2
2018-12-06T07:33:29.612Z,576.5
2018-12-06T07:34:32.035Z,576.2
2018-12-06T07:35:34.478Z,576
2018-12-06T07:36:36.390Z,576.7
2018-12-06T07:37:38.809Z,576.5
2018-12-06T07:38:41.241Z,576.4
2018-12-06T07:39:43.399Z,576.7
2018-12-06T07:40:45.839Z,576.5
2018-12-06T07:41:48.276Z,576.4
2018-12-06T07:42:50.200Z,576.5
2018-12-06T07:43:52.627Z,576.7
2018-12-06T07:44:54.503Z,576.6
2018-12-06T07:45:56.949Z,576.9
2018-12-06T07:46:59.380Z,576.6
2018-12-06T07:48:01.530Z,576.8
2018-12-06T07:49:03.402Z,576.8
2018-12-06T07:50:05.846Z,576.9
2018-12-06T07:51:08.015Z,577
2018-12-06T07:52:10.449Z,576.8
2018-12-06T07:53:12.894Z,576.8
2018-12-06T07:54:16.037Z,576.8
2018-12-06T07:55:18.484Z,576.8
2018-12-06T07:56:20.923Z,576.8
2018-12-06T07:57:23.349Z,576.8
2018-12-06T07:58:25.798Z,576.9
2018-12-06T07:59:27.966Z,577
2018-12-06T08:00:30.124Z,576.7
2018-12-06T08:01:32.283Z,576.8
2018-12-06T08:02:33.911Z,577
2018-12-06T08:03:36.090Z,576.5
2018-12-06T08:04:38.536Z,576.7
2018-12-06T08:05:40.961Z,576.4
2018-12-06T08:06:43.137Z,576.3
2018-12-06T08:07:45.295Z,576.1
2018-12-06T08:08:47.441Z,575.9
2018-12-06T08:09:49.860Z,575.9
2018-12-06T08:10:52.299Z,575.4
2018-12-06T08:11:54.465Z,575.6
2018-12-06T08:12:56.968Z,575.5
2018-12-06T08:13:59.104Z,575.7
2018-12-06T08:15:01.252Z,575.7
2018-12-06T08:16:03.681Z,575.6
2018-12-06T08:17:06.120Z,575.8
2018-12-06T08:18:08.565Z,575.6
2018-12-06T08:19:10.426Z,575.3
2018-12-06T08:20:12.610Z,575.1
2018-12-06T08:21:15.036Z,575.2
2018-12-06T08:22:17.195Z,575
2018-12-06T08:23:19.053Z,575
2018-12-06T08:24:20.948Z,575.2
2018-12-06T08:25:22.860Z,575.2
2018-12-06T08:26:25.285Z,574.9
2018-12-06T08:27:27.190Z,575
2018-12-06T08:28:29.628Z,575
2018-12-06T08:29:31.791Z,574.8
2018-12-06T08:30:33.967Z,574.3
2018-12-06T08:31:36.100Z,574.5
2018-12-06T08:32:38.251Z,574.2
2018-12-06T08:33:40.422Z,574.2
2018-12-06T08:34:42.583Z,573.8
2018-12-06T08:35:45.065Z,573.8
2018-12-06T08:36:46.946Z,573.4
2018-12-06T08:37:49.120Z,573.5
2018-12-06T08:38:51.265Z,573.3
2018-12-06T08:39:53.689Z,573.1
2018-12-06T08:40:56.110Z,572.5
2018-12-06T08:41:58.572Z,572.5
2018-12-06T08:43:00.722Z,572.4
2018-12-06T08:44:03.154Z,572.4
2018-12-06T08:45:05.293Z,572
2018-12-06T08:46:07.462Z,571.9
2018-12-06T08:47:09.604Z,572
2018-12-06T08:48:12.034Z,572
2018-12-06T08:49:14.463Z,571.8
2018-12-06T08:50:16.360Z,571.6
2018-12-06T08:51:18.509Z,571.4
2018-12-06T08:52:20.937Z,571.5
2018-12-06T08:53:22.265Z,571.4
2018-12-06T08:54:24.414Z,570.9
2018-12-06T08:55:26.010Z,570.6
2018-12-06T08:56:28.455Z,570.7
2018-12-06T08:57:30.602Z,570.4
2018-12-06T08:58:33.032Z,570.4
2018-12-06T08:59:35.484Z,570.3
2018-12-06T09:00:37.385Z,570.1
2018-12-06T09:01:39.823Z,569.7
2018-12-06T09:02:42.451Z,569.9
2018-12-06T09:03:44.591Z,569.6
2018-12-06T09:04:46.750Z,569.5
2018-12-06T09:05:49.235Z,569.3
2018-12-06T09:06:51.723Z,569.2
2018-12-06T09:07:54.156Z,568.9
2018-12-06T09:08:56.579Z,568.9
2018-12-06T09:09:58.998Z,569.1
2018-12-06T09:11:01.448Z,568.2
2018-12-06T09:12:03.617Z,568.9
2018-12-06T09:13:05.789Z,568.1
2018-12-06T09:14:08.206Z,568.1
2018-12-06T09:15:10.641Z,567.5
2018-12-06T09:16:12.799Z,567.5
2018-12-06T09:17:14.963Z,567.9
2018-12-06T09:18:17.387Z,567.5
2018-12-06T09:19:19.839Z,567.3
2018-12-06T09:20:21.450Z,566.9
2018-12-06T09:21:23.608Z,566.5
2018-12-06T09:22:26.496Z,566.8
2018-12-06T09:23:28.928Z,566.7
2018-12-06T09:24:31.360Z,567.1
2018-12-06T09:25:33.260Z,566.9
2018-12-06T09:26:35.439Z,566.6
2018-12-06T09:27:37.862Z,566.4
2018-12-06T09:28:40.387Z,566.5
2018-12-06T09:29:42.257Z,566.2
2018-12-06T09:30:44.427Z,566.1
2018-12-06T09:31:46.854Z,566.4
2018-12-06T09:32:49.000Z,565.8
2018-12-06T09:33:51.155Z,566.1
2018-12-06T09:34:53.320Z,565.8
2018-12-06T09:35:55.487Z,565.9
2018-12-06T09:36:57.924Z,565.8
2018-12-06T09:38:00.347Z,565.3
2018-12-06T09:39:02.769Z,565.1
2018-12-06T09:40:05.194Z,564.9
2018-12-06T09:41:07.622Z,565.3
2018-12-06T09:42:10.056Z,565.1
2018-12-06T09:43:12.215Z,565
2018-12-06T09:44:14.365Z,565.2
2018-12-06T09:45:16.258Z,565
2018-12-06T09:46:18.426Z,565.3
2018-12-06T09:47:20.848Z,565.1
2018-12-06T09:48:23.279Z,565
2018-12-06T09:49:25.455Z,565.3
2018-12-06T09:50:27.891Z,565.1
2018-12-06T09:51:30.042Z,565.4
2018-12-06T09:52:32.465Z,565.6
2018-12-06T09:53:34.892Z,565.3
2018-12-06T09:54:37.026Z,565.4
2018-12-06T09:55:39.466Z,565.6
2018-12-06T09:56:41.328Z,565.3
2018-12-06T09:57:43.460Z,565.7
2018-12-06T09:58:45.890Z,565.7
2018-12-06T09:59:48.966Z,565.6
2018-12-06T10:00:51.411Z,565.6
2018-12-06T10:01:53.585Z,565.8
2018-12-06T10:02:56.011Z,566.1
2018-12-06T10:03:58.449Z,566.4
2018-12-06T10:05:00.605Z,565.9
2018-12-06T10:06:02.771Z,566.3
2018-12-06T10:07:04.975Z,566.3
2018-12-06T10:08:06.869Z,566.1
2018-12-06T10:09:09.336Z,565.2
2018-12-06T10:10:11.770Z,566
2018-12-06T10:11:14.203Z,565.8
2018-12-06T10:12:16.630Z,566
2018-12-06T10:13:18.781Z,566.2
2018-12-06T10:14:21.730Z,565.8
2018-12-06T10:15:23.628Z,566.1
2018-12-06T10:16:25.800Z,566.4
2018-12-06T10:17:28.222Z,566.3
2018-12-06T10:18:30.690Z,566.4
2018-12-06T10:19:32.833Z,566.7
2018-12-06T10:20:35.262Z,566.1
2018-12-06T10:21:37.180Z,565.8
2018-12-06T10:22:39.612Z,566.4
2018-12-06T10:23:41.493Z,566.3
2018-12-06T10:24:43.651Z,565.6
2018-12-06T10:25:46.080Z,566
2018-12-06T10:26:48.232Z,565.5
2018-12-06T10:27:50.704Z,565.5
2018-12-06T10:28:52.847Z,565.3
2018-12-06T10:29:54.997Z,565.7
2018-12-06T10:30:57.471Z,565.9
2018-12-06T10:31:59.630Z,565.6
2018-12-06T10:33:02.046Z,565.7
2018-12-06T10:34:04.470Z,565.7
2018-12-06T10:35:06.900Z,565.3
2018-12-06T10:36:09.063Z,565.6
2018-12-06T10:37:11.489Z,565
2018-12-06T10:38:13.920Z,565.2
2018-12-06T10:39:15.799Z,565.3
2018-12-06T10:40:18.220Z,565.2
2018-12-06T10:41:20.393Z,565.3
2018-12-06T10:42:22.825Z,564.9
2018-12-06T10:43:24.703Z,564.8
2018-12-06T10:44:27.133Z,564.5
2018-12-06T10:45:29.561Z,564.5
2018-12-06T10:46:31.426Z,564.2
2018-12-06T10:47:33.649Z,564.7
2018-12-06T10:48:35.819Z,564.4
2018-12-06T10:49:38.259Z,564.3
2018-12-06T10:50:40.768Z,564.6
2018-12-06T10:51:42.909Z,564.7
2018-12-06T10:52:45.060Z,564.2
2018-12-06T10:53:46.958Z,564.5
2018-12-06T10:54:49.117Z,564.3
2018-12-06T10:55:51.270Z,564.6
2018-12-06T10:56:53.420Z,564.3
2018-12-06T10:57:55.629Z,564
2018-12-06T10:58:58.060Z,564.2
2018-12-06T11:00:00.222Z,564.1
2018-12-06T11:01:02.115Z,564
2018-12-06T11:02:04.270Z,564.2
2018-12-06T11:03:06.410Z,564.7
2018-12-06T11:04:08.286Z,564.2
2018-12-06T11:05:10.178Z,564.4
2018-12-06T11:06:12.369Z,564.2
2018-12-06T11:07:14.549Z,564.8
2018-12-06T11:08:16.693Z,564.5
2018-12-06T11:09:19.126Z,564.2
2018-12-06T11:10:21.011Z,563.8
2018-12-06T11:11:23.230Z,563.7
2018-12-06T11:12:25.649Z,563.6
2018-12-06T11:13:27.830Z,563.6
2018-12-06T11:14:30.254Z,563.7
2018-12-06T11:15:32.751Z,563.7
2018-12-06T11:16:35.191Z,563.4
2018-12-06T11:17:37.625Z,563.5
2018-12-06T11:18:40.051Z,563.6
2018-12-06T11:19:42.214Z,563.3
2018-12-06T11:20:44.632Z,563.6
2018-12-06T11:21:46.479Z,563.7
2018-12-06T11:22:48.632Z,564.1
2018-12-06T11:23:50.767Z,563.7
2018-12-06T11:24:52.939Z,563.8
2018-12-06T11:25:55.380Z,563.6
2018-12-06T11:26:57.272Z,563.5
2018-12-06T11:27:59.129Z,563.2
2018-12-06T11:29:01.282Z,562.7
2018-12-06T11:30:03.722Z,562.5
2018-12-06T11:31:05.605Z,562.5
2018-12-06T11:32:08.059Z,562.8
2018-12-06T11:33:09.940Z,562.2
2018-12-06T11:34:12.441Z,562.4
2018-12-06T11:35:14.615Z,562.5
2018-12-06T11:36:17.059Z,562.1
2018-12-06T11:37:19.224Z,562.5
2018-12-06T11:38:21.371Z,562.7
2018-12-06T11:39:23.525Z,562.8
2018-12-06T11:40:25.963Z,562.7
2018-12-06T11:41:28.117Z,562.8
2018-12-06T11:42:29.972Z,563.3
2018-12-06T11:43:32.121Z,563.3
2018-12-06T11:44:34.566Z,563.1
2018-12-06T11:45:36.999Z,563.2
2018-12-06T11:46:39.204Z,563.3
2018-12-06T11:47:41.371Z,563.1
2018-12-06T11:48:43.529Z,563.3
2018-12-06T11:49:45.729Z,563.1
2018-12-06T11:50:47.592Z,563.3
2018-12-06T11:51:50.018Z,563.6
2018-12-06T11:52:52.455Z,563.1
2018-12-06T11:53:54.620Z,563.5
2018-12-06T11:54:56.803Z,563.4
2018-12-06T11:55:59.227Z,563.3
2018-12-06T11:57:01.370Z,563.5
2018-12-06T11:58:03.251Z,563.6
2018-12-06T11:59:05.676Z,563.9
2018-12-06T12:00:07.565Z,564.1
2018-12-06T12:01:09.991Z,564.3
2018-12-06T12:02:12.171Z,564.1
2018-12-06T12:03:13.759Z,564.5
2018-12-06T12:04:15.911Z,564.6
2018-12-06T12:05:18.077Z,565.2
2018-12-06T12:06:20.491Z,564.8
2018-12-06T12:07:22.660Z,565
2018-12-06T12:08:25.073Z,565
2018-12-06T12:09:27.231Z,565.5
2018-12-06T12:10:29.384Z,565.2
2018-12-06T12:11:31.558Z,565.3
2018-12-06T12:12:33.695Z,565.1
2018-12-06T12:13:36.143Z,565
2018-12-06T12:14:38.297Z,565.1
2018-12-06T12:15:40.456Z,565.4
2018-12-06T12:16:42.330Z,565.8
2018-12-06T12:17:44.827Z,566.3
2018-12-06T12:18:46.452Z,566.6
2018-12-06T12:19:48.883Z,566.4
2018-12-06T12:20:51.051Z,566.5
2018-12-06T12:21:53.481Z,566.6
2018-12-06T12:22:55.911Z,566.5
2018-12-06T12:23:57.796Z,567.1
2018-12-06T12:25:00.237Z,566.8
2018-12-06T12:26:02.118Z,566.9
2018-12-06T12:27:04.557Z,567.2
2018-12-06T12:28:06.720Z,567.1
2018-12-06T12:29:08.854Z,567.2
2018-12-06T12:30:11.280Z,567.4
2018-12-06T12:31:13.458Z,567.1
2018-12-06T12:32:15.905Z,567.1
2018-12-06T12:33:18.349Z,566.9
2018-12-06T12:34:20.784Z,567.2
2018-12-06T12:35:23.208Z,567.1
2018-12-06T12:36:25.665Z,567.3
2018-12-06T12:37:27.552Z,567.2
2018-12-06T12:38:29.977Z,567.6
2018-12-06T12:39:32.187Z,567.2
2018-12-06T12:40:34.343Z,567.1
2018-12-06T12:41:36.248Z,567
2018-12-06T12:42:38.689Z,566.8
2018-12-06T12:43:41.123Z,567.2
2018-12-06T12:44:43.540Z,566.9
2018-12-06T12:45:45.982Z,566.8
2018-12-06T12:46:48.421Z,566.5
2018-12-06T12:47:50.868Z,566.1
2018-12-06T12:48:52.727Z,566.5
2018-12-06T12:49:55.157Z,566.4
2018-12-06T12:50:57.323Z,566.2
2018-12-06T12:51:59.750Z,565.7
2018-12-06T12:53:02.181Z,565.6
2018-12-06T12:54:04.331Z,566
2018-12-06T12:55:06.762Z,565.4
2018-12-06T12:56:09.198Z,565.7
2018-12-06T12:57:11.625Z,565.2
2018-12-06T12:58:13.787Z,565.2
2018-12-06T12:59:15.955Z,565.5
2018-12-06T13:00:18.105Z,565.5
2018-12-06T13:01:20.239Z,565.5
2018-12-06T13:02:22.663Z,565.8
2018-12-06T13:03:25.088Z,566
2018-12-06T13:04:27.587Z,565.7
2018-12-06T13:05:31.578Z,565.8
2018-12-06T13:06:33.750Z,566
2018-12-06T13:07:36.193Z,565.7
2018-12-06T13:08:38.618Z,565.8
2018-12-06T13:09:41.139Z,566.2
2018-12-06T13:10:43.580Z,565.8
2018-12-06T13:11:45.748Z,565.9
2018-12-06T13:12:47.994Z,565.9
2018-12-06T13:13:50.134Z,565.9
2018-12-06T13:14:52.555Z,565.8
2018-12-06T13:15:54.719Z,566.2
2018-12-06T13:16:57.155Z,565.7
2018-12-06T13:17:59.309Z,565.7
2018-12-06T13:19:01.447Z,565.8
2018-12-06T13:20:03.882Z,566.2
2018-12-06T13:21:06.318Z,565.6
2018-12-06T13:22:08.216Z,566.4
2018-12-06T13:23:10.370Z,566.4
2018-12-06T13:24:12.529Z,566.5
2018-12-06T13:25:14.688Z,566.8
2018-12-06T13:26:17.121Z,567.2
2018-12-06T13:27:19.005Z,567